Time;durP1;ratioP1;P1;durP2;ratioP2;P2;SDS_P1;SDS_P2;PMS_P1;PMS_P2;Temp;Humidity;BMP_temperature;BMP_pressure;BME280_temperature;BME280_humidity;BME280_pressure;Samples;Min_cycle;Max_cycle;Signal;HPM_P1;HPM_P2
2021/04/16 00:02:14;;;;;;;12.60;4.35;;;8.10;56.10;;;;;;4992340;28;20077;-64
2021/04/16 00:04:39;;;;;;;13.55;4.55;;;8.00;56.30;;;;;;5004742;28;20037;-64
2021/04/16 00:07:05;;;;;;;14.80;5.18;;;8.00;56.50;;;;;;5002715;28;20037;-64
2021/04/16 00:09:35;;;;;;;11.85;4.72;;;8.00;56.60;;;;;;5004672;28;20041;-64
2021/04/16 00:12:03;;;;;;;17.70;4.50;;;8.00;56.80;;;;;;5001402;28;20051;-65
2021/04/16 00:14:29;;;;;;;21.52;4.80;;;8.00;56.90;;;;;;5011609;28;20045;-64
2021/04/16 00:16:57;;;;;;;20.70;5.32;;;8.10;57.00;;;;;;5000821;28;20045;-64
2021/04/16 00:19:25;;;;;;;12.95;5.13;;;8.10;57.10;;;;;;5005421;28;20053;-64
2021/04/16 00:21:53;;;;;;;13.45;4.85;;;8.20;57.30;;;;;;5004240;28;20061;-64
2021/04/16 00:24:18;;;;;;;14.88;4.88;;;8.20;57.20;;;;;;5003919;28;20037;-64
2021/04/16 00:26:48;;;;;;;18.55;5.93;;;8.20;57.20;;;;;;5003274;28;20526;-65
2021/04/16 00:29:14;;;;;;;14.93;4.75;;;8.20;57.20;;;;;;5005862;28;20148;-65
2021/04/16 00:31:50;;;;;;;13.70;5.45;;;8.20;57.10;;;;;;5005210;28;20047;-65
2021/04/16 00:34:21;;;;;;;13.73;5.70;;;8.20;57.10;;;;;;4999736;28;20167;-64
2021/04/16 00:36:46;;;;;;;12.93;5.60;;;8.10;57.00;;;;;;5010978;28;20041;-64
2021/04/16 00:39:12;;;;;;;16.88;5.90;;;8.10;56.90;;;;;;5018115;28;20450;-64
2021/04/16 00:41:43;;;;;;;18.20;5.60;;;8.10;56.90;;;;;;5003429;28;20071;-64
2021/04/16 00:44:08;;;;;;;18.95;6.43;;;8.00;57.00;;;;;;5001464;28;20045;-64
2021/04/16 00:47:05;;;;;;;16.95;6.63;;;8.00;57.20;;;;;;4993614;28;20660;-64
2021/04/16 00:49:41;;;;;;;12.73;6.28;;;8.00;57.10;;;;;;4991673;28;20095;-64
2021/04/16 00:52:11;;;;;;;17.13;6.25;;;8.00;57.20;;;;;;5019227;28;20963;-64
2021/04/16 00:54:39;;;;;;;13.07;6.25;;;7.90;57.20;;;;;;4998981;28;20178;-64
2021/04/16 00:57:07;;;;;;;11.82;6.07;;;7.90;57.30;;;;;;4998980;28;20511;-65
2021/04/16 00:59:39;;;;;;;16.85;6.60;;;7.90;57.40;;;;;;5001472;28;20380;-64
2021/04/16 01:02:05;;;;;;;14.10;7.32;;;7.90;57.40;;;;;;4987319;28;20042;-64
2021/04/16 01:04:34;;;;;;;10.98;6.18;;;7.90;57.50;;;;;;4994627;28;20056;-64
2021/04/16 01:07:02;;;;;;;13.65;6.43;;;7.90;57.50;;;;;;4997782;28;20208;-64
2021/04/16 01:09:29;;;;;;;15.23;6.05;;;8.00;57.60;;;;;;4986664;28;20538;-64
2021/04/16 01:11:59;;;;;;;12.25;6.90;;;8.00;57.60;;;;;;4995529;28;20045;-64
2021/04/16 01:14:25;;;;;;;17.40;6.97;;;8.00;57.60;;;;;;5004796;28;20041;-64
2021/04/16 01:16:51;;;;;;;14.90;6.47;;;8.00;57.70;;;;;;4999564;28;20029;-63
2021/04/16 01:19:37;;;;;;;20.25;7.90;;;8.10;57.80;;;;;;4999162;28;20076;-64
2021/04/16 01:22:32;;;;;;;14.65;6.85;;;8.10;57.80;;;;;;5003061;28;20048;-64
2021/04/16 01:25:03;;;;;;;16.35;7.80;;;8.20;57.90;;;;;;5008354;28;20048;-65
2021/04/16 01:27:31;;;;;;;20.77;8.50;;;8.20;58.00;;;;;;5008554;28;20041;-64
2021/04/16 01:30:08;;;;;;;21.85;8.55;;;8.20;58.00;;;;;;5001376;28;20037;-65
2021/04/16 01:32:38;;;;;;;16.17;7.50;;;8.30;58.10;;;;;;5008850;28;20033;-64
2021/04/16 01:35:09;;;;;;;17.00;8.05;;;8.30;58.00;;;;;;5008867;28;20130;-65
2021/04/16 01:37:35;;;;;;;20.90;7.78;;;8.30;58.00;;;;;;5007423;28;20499;-64
2021/04/16 01:40:00;;;;;;;16.67;7.47;;;8.30;57.80;;;;;;4989869;28;20183;-64
2021/04/16 01:42:28;;;;;;;23.33;8.35;;;8.30;57.80;;;;;;4994516;28;20050;-64
2021/04/16 01:44:54;;;;;;;14.57;7.30;;;8.30;57.70;;;;;;5002311;28;20620;-64
2021/04/16 01:47:20;;;;;;;16.55;7.30;;;8.30;57.70;;;;;;4982211;28;20099;-65
2021/04/16 01:49:54;;;;;;;18.52;7.95;;;8.20;57.70;;;;;;4995202;28;20033;-64
2021/04/16 01:52:29;;;;;;;14.75;7.45;;;8.20;57.70;;;;;;4982284;28;20407;-64
2021/04/16 01:54:55;;;;;;;16.67;8.25;;;8.10;57.60;;;;;;4979803;28;20065;-65
2021/04/16 01:57:28;;;;;;;22.17;9.32;;;8.10;57.60;;;;;;4996203;28;20520;-65
2021/04/16 01:59:54;;;;;;;15.00;8.00;;;8.10;57.70;;;;;;4988279;28;20041;-64
2021/04/16 02:02:30;;;;;;;20.38;8.80;;;8.10;57.80;;;;;;4981193;28;20038;-64
2021/04/16 02:04:59;;;;;;;16.58;7.65;;;8.10;57.80;;;;;;4981276;28;20071;-64
2021/04/16 02:07:28;;;;;;;18.95;7.85;;;8.10;57.70;;;;;;4985420;28;20072;-64
2021/04/16 02:09:56;;;;;;;24.05;9.23;;;8.10;57.70;;;;;;4983996;28;20072;-64
2021/04/16 02:12:24;;;;;;;17.70;8.55;;;8.00;57.60;;;;;;4995172;28;20041;-64
2021/04/16 02:14:51;;;;;;;14.73;8.80;;;8.00;57.60;;;;;;4992747;28;20041;-64
2021/04/16 02:17:26;;;;;;;15.50;7.75;;;8.00;57.60;;;;;;4979784;28;20083;-64
2021/04/16 02:19:56;;;;;;;20.95;8.40;;;8.00;57.60;;;;;;4979787;28;20107;-64
2021/04/16 02:22:25;;;;;;;19.00;8.18;;;7.90;57.70;;;;;;4983184;28;20133;-64
2021/04/16 02:24:54;;;;;;;16.98;7.72;;;7.90;57.40;;;;;;4994815;28;20048;-64
2021/04/16 02:27:22;;;;;;;17.38;8.05;;;7.80;57.30;;;;;;4980080;28;20300;-64
2021/04/16 02:29:49;;;;;;;23.27;8.32;;;7.70;57.10;;;;;;4969068;28;20156;-64
2021/04/16 02:32:15;;;;;;;26.35;8.20;;;7.70;57.10;;;;;;4967642;28;20048;-64
2021/04/16 02:34:41;;;;;;;20.60;8.65;;;7.60;57.10;;;;;;4974530;28;20068;-64
2021/04/16 02:37:10;;;;;;;18.70;8.50;;;7.50;57.20;;;;;;4999039;28;20041;-64
2021/04/16 02:39:38;;;;;;;22.13;8.70;;;7.40;57.10;;;;;;4981856;28;20637;-64
2021/04/16 02:42:04;;;;;;;16.75;8.45;;;7.40;57.20;;;;;;4969635;28;20071;-64
2021/04/16 02:44:33;;;;;;;21.08;9.52;;;7.30;57.30;;;;;;4972556;28;20073;-64
2021/04/16 02:47:02;;;;;;;17.13;9.23;;;7.30;57.50;;;;;;4980109;28;20546;-64
2021/04/16 02:49:28;;;;;;;22.35;9.25;;;7.30;57.60;;;;;;4975081;28;20042;-64
2021/04/16 02:51:56;;;;;;;18.38;10.00;;;7.30;57.70;;;;;;4973333;28;20350;-64
2021/04/16 02:54:24;;;;;;;24.90;10.48;;;7.30;57.80;;;;;;4983137;28;20130;-64
2021/04/16 02:56:53;;;;;;;21.42;9.80;;;7.30;58.50;;;;;;4988354;28;20037;-64
2021/04/16 02:59:22;;;;;;;19.45;9.45;;;7.30;58.10;;;;;;4973969;28;20129;-65
2021/04/16 03:01:51;;;;;;;23.98;10.02;;;7.40;58.10;;;;;;4975379;28;20041;-64
2021/04/16 03:04:17;;;;;;;30.90;10.15;;;7.40;58.10;;;;;;4973070;28;20538;-63
2021/04/16 03:06:45;;;;;;;22.52;9.65;;;7.40;58.00;;;;;;4974860;28;20965;-64
2021/04/16 03:09:14;;;;;;;24.48;10.55;;;7.40;58.00;;;;;;4980508;28;20053;-64
2021/04/16 03:11:39;;;;;;;23.63;10.38;;;7.40;58.00;;;;;;4981473;28;20803;-63
2021/04/16 03:14:05;;;;;;;19.23;10.18;;;7.40;58.00;;;;;;4973007;28;20389;-64
2021/04/16 03:16:31;;;;;;;17.02;10.25;;;7.40;58.00;;;;;;4994200;28;20153;-64
2021/04/16 03:18:59;;;;;;;15.05;9.68;;;7.40;58.10;;;;;;4974282;28;20034;-65
2021/04/16 03:21:27;;;;;;;25.88;10.65;;;7.40;58.10;;;;;;4972974;28;20240;-64
2021/04/16 03:23:53;;;;;;;22.73;11.05;;;7.40;58.20;;;;;;4971742;28;20324;-65
2021/04/16 03:26:19;;;;;;;20.10;10.45;;;7.40;58.30;;;;;;4987727;28;20065;-65
2021/04/16 03:28:50;;;;;;;17.98;10.13;;;7.40;58.30;;;;;;4983522;28;20116;-65
2021/04/16 03:31:16;;;;;;;21.00;10.55;;;7.40;58.30;;;;;;4989016;28;20048;-65
2021/04/16 03:33:44;;;;;;;22.75;11.23;;;7.40;58.90;;;;;;4971808;28;20762;-65
2021/04/16 03:36:12;;;;;;;23.10;10.60;;;7.40;58.40;;;;;;4995724;28;20033;-65
2021/04/16 03:38:37;;;;;;;24.55;10.95;;;7.40;58.40;;;;;;4979430;28;20575;-64
2021/04/16 03:41:03;;;;;;;26.58;11.02;;;7.40;58.40;;;;;;4972770;28;20033;-64
2021/04/16 03:43:29;;;;;;;22.38;11.50;;;7.50;58.40;;;;;;4973527;28;20447;-65
2021/04/16 03:45:54;;;;;;;21.52;11.75;;;7.50;58.50;;;;;;4976990;28;20041;-64
2021/04/16 03:48:20;;;;;;;25.33;11.88;;;7.50;58.50;;;;;;4977177;28;20380;-64
2021/04/16 03:50:48;;;;;;;24.27;12.95;;;7.60;58.60;;;;;;4970171;28;22959;-65
2021/04/16 03:53:13;;;;;;;23.90;11.55;;;7.60;58.60;;;;;;4975734;28;20606;-64
2021/04/16 03:55:40;;;;;;;32.08;12.52;;;7.60;58.70;;;;;;4972061;28;20330;-64
2021/04/16 03:58:07;;;;;;;18.77;11.27;;;7.70;58.80;;;;;;4977996;28;20146;-64
2021/04/16 04:00:37;;;;;;;20.45;11.95;;;7.70;58.70;;;;;;4976034;28;20039;-64
2021/04/16 04:03:05;;;;;;;28.10;12.57;;;7.80;58.90;;;;;;4973129;28;20033;-65
2021/04/16 04:05:33;;;;;;;26.30;13.35;;;7.80;58.90;;;;;;4972813;28;20061;-65
2021/04/16 04:07:59;;;;;;;26.70;13.55;;;7.80;59.00;;;;;;4972715;28;20065;-65
2021/04/16 04:10:28;;;;;;;25.55;13.15;;;7.80;58.90;;;;;;4976149;28;20069;-64
2021/04/16 04:12:55;;;;;;;24.05;14.45;;;7.90;59.00;;;;;;4991122;28;20056;-64
2021/04/16 04:15:21;;;;;;;31.70;14.73;;;7.90;59.00;;;;;;4974298;28;20845;-65
2021/04/16 04:17:47;;;;;;;36.97;15.18;;;8.00;59.10;;;;;;4974482;28;20042;-65
2021/04/16 04:20:19;;;;;;;25.98;14.82;;;8.00;59.10;;;;;;4974979;28;20124;-64
2021/04/16 04:22:45;;;;;;;30.05;14.27;;;8.10;59.10;;;;;;4982912;28;20034;-65
2021/04/16 04:25:15;;;;;;;29.25;14.57;;;8.10;59.10;;;;;;4970199;28;20040;-65
2021/04/16 04:27:43;;;;;;;32.45;14.95;;;8.10;59.20;;;;;;4969585;28;20042;-65
2021/04/16 04:30:09;;;;;;;34.08;14.68;;;8.20;59.20;;;;;;4965127;28;20049;-65
2021/04/16 04:32:38;;;;;;;32.97;15.13;;;8.20;59.20;;;;;;4972750;28;20033;-65
2021/04/16 04:35:04;;;;;;;37.03;15.13;;;8.30;59.30;;;;;;4980111;28;20890;-65
2021/04/16 04:37:32;;;;;;;29.15;14.65;;;8.30;59.30;;;;;;4972944;28;20132;-64
2021/04/16 04:39:57;;;;;;;38.10;15.63;;;8.40;59.30;;;;;;4973708;28;20326;-65
2021/04/16 04:42:23;;;;;;;26.92;16.08;;;8.40;59.30;;;;;;4985463;28;20535;-64
2021/04/16 04:44:49;;;;;;;30.95;16.65;;;8.50;59.30;;;;;;4972514;28;20625;-64
2021/04/16 04:47:14;;;;;;;32.90;16.15;;;8.50;59.40;;;;;;4960603;28;20044;-64
2021/04/16 04:49:40;;;;;;;30.70;15.32;;;8.50;59.30;;;;;;4970273;28;20612;-65
2021/04/16 04:52:18;;;;;;;34.92;17.45;;;8.60;59.40;;;;;;4978965;28;20033;-64
2021/04/16 04:54:47;;;;;;;26.90;15.50;;;8.60;59.40;;;;;;4973103;28;20447;-64
2021/04/16 04:57:15;;;;;;;34.35;15.73;;;8.60;59.40;;;;;;4975513;28;25337;-64
2021/04/16 04:59:42;;;;;;;29.63;15.15;;;8.60;59.40;;;;;;4968426;28;20034;-64
2021/04/16 05:02:11;;;;;;;29.85;15.35;;;8.70;59.40;;;;;;4973858;28;20142;-64
2021/04/16 05:04:39;;;;;;;34.28;15.80;;;8.70;59.30;;;;;;4971165;28;20136;-64
2021/04/16 05:07:07;;;;;;;30.70;15.80;;;8.70;59.30;;;;;;4979961;28;20483;-63
2021/04/16 05:09:32;;;;;;;29.70;15.27;;;8.70;59.20;;;;;;4987872;28;20129;-64
2021/04/16 05:12:00;;;;;;;29.42;14.85;;;8.70;59.20;;;;;;4984698;28;20408;-64
2021/04/16 05:14:28;;;;;;;28.25;14.25;;;8.70;59.20;;;;;;4988587;28;20508;-64
2021/04/16 05:16:54;;;;;;;29.75;14.48;;;8.80;59.20;;;;;;4982814;28;20045;-64
2021/04/16 05:19:20;;;;;;;27.67;14.65;;;8.80;59.30;;;;;;4977627;28;20101;-64
2021/04/16 05:21:49;;;;;;;29.90;14.48;;;8.80;59.30;;;;;;4974951;28;20053;-64
2021/04/16 05:24:15;;;;;;;30.60;15.20;;;8.80;59.20;;;;;;4975433;28;20057;-64
2021/04/16 05:26:43;;;;;;;27.55;14.90;;;8.90;59.30;;;;;;4982673;28;20060;-64
2021/04/16 05:29:09;;;;;;;29.52;13.98;;;8.90;59.20;;;;;;4976911;28;20030;-64
2021/04/16 05:31:36;;;;;;;30.33;14.65;;;8.90;59.20;;;;;;4982001;28;20037;-64
2021/04/16 05:34:04;;;;;;;25.58;13.77;;;9.00;59.30;;;;;;5004713;28;20068;-64
2021/04/16 05:36:30;;;;;;;30.50;13.60;;;9.10;59.30;;;;;;4997261;28;20344;-64
2021/04/16 05:38:56;;;;;;;30.25;13.95;;;9.10;59.20;;;;;;5001491;28;20038;-64
2021/04/16 05:41:22;;;;;;;24.75;13.73;;;9.20;59.20;;;;;;5009517;28;20574;-64
2021/04/16 05:43:50;;;;;;;28.95;13.95;;;9.20;59.30;;;;;;4999495;28;20060;-63
2021/04/16 05:46:16;;;;;;;19.77;12.98;;;9.30;59.30;;;;;;5000995;28;20034;-64
2021/04/16 05:48:43;;;;;;;23.73;13.40;;;9.40;59.50;;;;;;5002478;28;24976;-64
2021/04/16 05:51:10;;;;;;;22.38;12.90;;;9.50;59.70;;;;;;5008630;28;20557;-64
2021/04/16 05:53:38;;;;;;;19.02;11.50;;;9.70;59.90;;;;;;4999679;28;20057;-64
2021/04/16 05:56:07;;;;;;;21.27;11.23;;;10.00;59.80;;;;;;4993955;28;20152;-64
2021/04/16 05:58:33;;;;;;;17.13;10.63;;;10.20;59.60;;;;;;4998578;28;20033;-64
2021/04/16 06:00:58;;;;;;;15.95;10.18;;;10.40;59.50;;;;;;4991343;28;20537;-64
2021/04/16 06:03:26;;;;;;;17.85;8.70;;;10.60;59.10;;;;;;5002240;28;20045;-64
2021/04/16 06:05:52;;;;;;;13.75;7.93;;;10.60;58.70;;;;;;4995252;28;20777;-64
2021/04/16 06:08:19;;;;;;;14.50;7.78;;;10.70;58.30;;;;;;4991777;28;20041;-64
2021/04/16 06:10:49;;;;;;;15.63;8.15;;;10.80;58.40;;;;;;4999832;28;20827;-65
2021/04/16 06:13:15;;;;;;;13.00;7.45;;;10.80;58.00;;;;;;4989803;28;21787;-64
2021/04/16 06:15:43;;;;;;;17.80;7.53;;;10.90;57.90;;;;;;4999523;28;20136;-65
2021/04/16 06:18:11;;;;;;;17.60;6.80;;;10.90;57.80;;;;;;4998929;28;20045;-65
2021/04/16 06:20:41;;;;;;;10.65;6.35;;;10.90;57.70;;;;;;5004868;28;20037;-64
2021/04/16 06:23:09;;;;;;;13.63;6.22;;;10.90;57.60;;;;;;5009681;28;20357;-64
2021/04/16 06:25:35;;;;;;;11.70;5.63;;;11.00;57.60;;;;;;4984828;28;20033;-64
2021/04/16 06:28:07;;;;;;;11.10;5.57;;;11.10;57.40;;;;;;4995985;28;20041;-64
2021/04/16 06:30:34;;;;;;;10.65;5.32;;;11.10;57.10;;;;;;5002960;28;20041;-64
2021/04/16 06:33:05;;;;;;;18.42;5.40;;;11.10;57.10;;;;;;5004490;28;20101;-63
2021/04/16 06:35:31;;;;;;;12.15;5.15;;;11.20;57.20;;;;;;4998435;28;20688;-63
2021/04/16 06:37:57;;;;;;;8.90;4.93;;;11.20;57.20;;;;;;4992947;28;20064;-64
2021/04/16 06:40:29;;;;;;;10.13;5.05;;;11.20;57.20;;;;;;5029062;28;20120;-63
2021/04/16 06:42:59;;;;;;;7.68;3.65;;;11.30;57.20;;;;;;5009987;28;20044;-63
2021/04/16 06:45:33;;;;;;;11.45;3.85;;;11.40;57.10;;;;;;5002824;28;20029;-63
2021/04/16 06:48:03;;;;;;;6.57;3.72;;;11.50;56.80;;;;;;5002743;28;20076;-64
2021/04/16 06:50:40;;;;;;;5.13;2.90;;;11.60;56.50;;;;;;5019913;28;20460;-63
2021/04/16 06:53:17;;;;;;;6.15;2.90;;;11.70;56.20;;;;;;5008434;28;20132;-64
2021/04/16 06:56:01;;;;;;;6.30;2.42;;;11.80;56.20;;;;;;5004809;28;20244;-63
2021/04/16 06:58:50;;;;;;;5.88;2.80;;;12.00;56.10;;;;;;5001849;28;20061;-63
2021/04/16 07:01:25;;;;;;;6.30;2.22;;;12.40;56.10;;;;;;4983172;28;20034;-64
2021/04/16 07:04:16;;;;;;;7.85;2.25;;;13.10;55.60;;;;;;4992217;28;24212;-64
2021/04/16 07:06:41;;;;;;;5.15;2.35;;;13.70;53.90;;;;;;4993101;28;20111;-64
2021/04/16 07:09:12;;;;;;;3.78;2.20;;;14.00;52.90;;;;;;4999739;28;20038;-64
2021/04/16 07:11:41;;;;;;;6.80;2.38;;;14.40;52.00;;;;;;5009743;28;20044;-63
2021/04/16 07:14:15;;;;;;;4.90;2.45;;;14.90;51.00;;;;;;5006041;28;20044;-63
2021/04/16 07:16:41;;;;;;;4.63;2.45;;;15.40;49.60;;;;;;5016313;28;20065;-63
2021/04/16 07:19:18;;;;;;;5.38;2.50;;;15.90;48.80;;;;;;5005900;28;20751;-64
2021/04/16 07:21:44;;;;;;;5.30;2.80;;;16.60;47.10;;;;;;5002531;28;20345;-63
2021/04/16 07:24:16;;;;;;;5.07;2.10;;;17.10;45.90;;;;;;5009651;28;20603;-63
2021/04/16 07:26:50;;;;;;;6.65;2.10;;;17.70;44.30;;;;;;5004908;28;20033;-64
2021/04/16 07:29:39;;;;;;;6.35;2.08;;;;;;;;;;5003508;28;20048;-64
2021/04/16 07:32:05;;;;;;;5.00;2.40;;;18.50;42.60;;;;;;5003416;28;20036;-63
2021/04/16 07:34:34;;;;;;;4.70;2.40;;;19.80;39.20;;;;;;4987443;28;20045;-64
2021/04/16 07:37:27;;;;;;;3.33;2.03;;;20.10;38.40;;;;;;4999364;28;20037;-64
2021/04/16 07:40:05;;;;;;;6.35;2.05;;;20.80;37.10;;;;;;4999687;28;20075;-64
2021/04/16 07:42:48;;;;;;;4.80;2.00;;;22.00;35.10;;;;;;5002839;28;20050;-63
2021/04/16 07:45:33;;;;;;;8.23;2.13;;;;;;;;;;4992697;28;20428;-64
2021/04/16 07:48:18;;;;;;;6.25;1.80;;;;;;;;;;4995822;28;20203;-64
2021/04/16 07:50:51;;;;;;;4.97;1.90;;;23.20;33.10;;;;;;5008943;28;20273;-64
2021/04/16 07:53:46;;;;;;;2.55;1.60;;;25.90;28.80;;;;;;4995262;28;20050;-65
2021/04/16 07:56:22;;;;;;;3.17;1.90;;;26.40;28.10;;;;;;4995356;28;21608;-64
2021/04/16 07:59:02;;;;;;;5.45;1.80;;;26.90;27.00;;;;;;5018326;28;20033;-64
2021/04/16 08:01:36;;;;;;;8.15;2.35;;;27.30;26.60;;;;;;4999014;28;20048;-65
2021/04/16 08:04:18;;;;;;;3.78;1.98;;;27.90;25.70;;;;;;5000392;28;20104;-64
2021/04/16 08:06:47;;;;;;;5.75;2.30;;;28.50;24.90;;;;;;4985075;28;20033;-64
2021/04/16 08:09:30;;;;;;;3.70;2.10;;;28.90;24.50;;;;;;4992898;28;20057;-64
2021/04/16 08:12:02;;;;;;;3.90;2.08;;;29.20;24.10;;;;;;4987240;28;20111;-65
2021/04/16 08:14:33;;;;;;;5.43;1.77;;;29.50;23.50;;;;;;5009607;28;20467;-64
2021/04/16 08:17:03;;;;;;;4.32;1.70;;;29.60;22.60;;;;;;4999253;28;20045;-65
2021/04/16 08:19:37;;;;;;;4.22;1.45;;;29.80;22.80;;;;;;4997752;28;20044;-64
2021/04/16 08:22:11;;;;;;;4.53;1.90;;;29.90;22.40;;;;;;4995272;28;20041;-65
2021/04/16 08:24:52;;;;;;;4.60;2.08;;;;;;;;;;4997502;28;20052;-65
2021/04/16 08:27:27;;;;;;;6.55;2.08;;;;;;;;;;4982773;28;20116;-64
2021/04/16 08:29:58;;;;;;;5.90;2.08;;;30.20;22.10;;;;;;4994647;28;20044;-64
2021/04/16 08:32:37;;;;;;;3.15;1.90;;;31.20;21.70;;;;;;4998565;28;20450;-65
2021/04/16 08:35:03;;;;;;;2.72;1.52;;;;;;;;;;4991781;28;20274;-64
2021/04/16 08:37:33;;;;;;;5.53;1.95;;;;;;;;;;4992503;28;20065;-65
2021/04/16 08:39:59;;;;;;;3.95;1.95;;;31.40;21.30;;;;;;4993286;28;20533;-65
2021/04/16 08:42:31;;;;;;;4.68;1.90;;;31.10;21.20;;;;;;5017780;28;20407;-65
2021/04/16 08:45:18;;;;;;;6.00;1.95;;;30.90;20.70;;;;;;4986746;28;20049;-65
2021/04/16 08:48:02;;;;;;;5.65;1.80;;;30.90;20.90;;;;;;4995390;28;20050;-65
2021/04/16 08:50:31;;;;;;;5.63;2.17;;;31.00;21.00;;;;;;4996724;28;20121;-64
2021/04/16 08:53:00;;;;;;;4.40;2.15;;;31.00;20.60;;;;;;5000362;28;20043;-65
2021/04/16 08:55:41;;;;;;;4.65;2.53;;;30.90;20.50;;;;;;4998496;28;20072;-65
2021/04/16 08:58:11;;;;;;;4.85;2.28;;;30.90;20.50;;;;;;4995600;28;20395;-64
2021/04/16 09:00:48;;;;;;;6.00;2.67;;;31.00;20.40;;;;;;5000730;28;20344;-65
2021/04/16 09:03:45;;;;;;;4.78;2.05;;;31.00;20.50;;;;;;5009996;28;20502;-64
2021/04/16 09:06:25;;;;;;;4.28;2.40;;;;;;;;;;4991267;28;20125;-64
2021/04/16 09:08:52;;;;;;;5.22;2.40;;;;;;;;;;4993727;28;20542;-64
2021/04/16 09:11:43;;;;;;;5.63;2.25;;;31.00;20.50;;;;;;4993385;28;20230;-65
2021/04/16 09:14:15;;;;;;;3.53;2.15;;;31.80;19.90;;;;;;4990626;28;20486;-64
2021/04/16 09:16:46;;;;;;;5.63;2.72;;;32.10;20.10;;;;;;4986169;28;20045;-64
2021/04/16 09:19:29;;;;;;;7.72;2.35;;;32.20;19.60;;;;;;4995744;28;20045;-65
2021/04/16 09:22:04;;;;;;;3.17;2.35;;;32.40;20.10;;;;;;4998097;28;20514;-64
2021/04/16 09:24:55;;;;;;;8.25;2.75;;;32.50;19.60;;;;;;4983014;28;20166;-64
2021/04/16 09:27:41;;;;;;;3.92;2.30;;;32.40;19.80;;;;;;4981557;28;20057;-65
2021/04/16 09:30:08;;;;;;;6.25;2.40;;;32.30;20.40;;;;;;4990962;28;20041;-64
2021/04/16 09:32:41;;;;;;;6.10;2.33;;;32.40;20.20;;;;;;4997308;28;20037;-64
2021/04/16 09:35:22;;;;;;;8.23;2.65;;;32.60;19.70;;;;;;4991825;28;20053;-64
2021/04/16 09:38:32;;;;;;;4.95;2.70;;;32.70;19.80;;;;;;4983167;28;20037;-65
2021/04/16 09:41:26;;;;;;;7.70;3.15;;;32.60;19.60;;;;;;4946074;28;20046;-65
2021/04/16 09:43:58;;;;;;;4.38;2.17;;;32.20;20.10;;;;;;4934687;28;20034;-64
2021/04/16 09:46:36;;;;;;;4.30;2.38;;;32.30;19.80;;;;;;4970990;28;20617;-64
2021/04/16 09:49:08;;;;;;;5.75;2.80;;;32.50;20.30;;;;;;4978477;28;21215;-65
2021/04/16 09:51:36;;;;;;;4.32;2.25;;;32.90;19.90;;;;;;4993586;28;20095;-65
2021/04/16 09:54:07;;;;;;;3.20;2.10;;;33.30;19.30;;;;;;4982828;28;20416;-64
2021/04/16 09:56:36;;;;;;;3.70;2.70;;;33.40;18.80;;;;;;4981214;28;20500;-64
2021/04/16 09:59:05;;;;;;;4.82;2.20;;;33.10;19.10;;;;;;4983949;28;20289;-65
2021/04/16 10:01:34;;;;;;;4.43;2.08;;;33.00;19.00;;;;;;4981773;28;20049;-65
2021/04/16 10:04:21;;;;;;;4.28;2.80;;;32.90;18.80;;;;;;4983212;28;20330;-65
2021/04/16 10:06:50;;;;;;;3.92;2.40;;;32.90;18.40;;;;;;4977523;28;20118;-65
2021/04/16 10:09:18;;;;;;;7.38;2.35;;;32.80;18.70;;;;;;4979907;28;20030;-64
2021/04/16 10:12:28;;;;;;;5.22;2.10;;;32.50;18.70;;;;;;4987386;28;20034;-64
2021/04/16 10:14:57;;;;;;;6.50;2.53;;;32.10;18.90;;;;;;5002416;28;20064;-65
2021/04/16 10:17:29;;;;;;;4.13;2.08;;;32.40;18.70;;;;;;4986970;28;20143;-65
2021/04/16 10:20:14;;;;;;;3.75;2.20;;;32.70;18.00;;;;;;4986374;28;20120;-63
2021/04/16 10:22:43;;;;;;;6.03;2.47;;;32.70;18.00;;;;;;4983177;28;20124;-64
2021/04/16 12:38:43;;;;;;;4.57;2.80;;;21.20;26.30;;;;;;4994426;28;20458;-64
2021/04/16 12:41:16;;;;;;;4.13;2.75;;;21.40;26.10;;;;;;5001977;28;20547;-64
2021/04/16 12:43:44;;;;;;;4.57;2.50;;;21.40;25.80;;;;;;4993929;28;20532;-65
2021/04/16 12:46:15;;;;;;;4.53;3.17;;;21.40;26.00;;;;;;4996427;28;20160;-64
2021/04/16 12:48:44;;;;;;;7.85;2.70;;;21.50;26.40;;;;;;5002525;28;20084;-64
2021/04/16 12:51:10;;;;;;;7.57;3.10;;;21.70;26.50;;;;;;5013935;28;20184;-64
2021/04/16 12:53:37;;;;;;;4.22;3.33;;;21.90;26.30;;;;;;5001285;28;20037;-63
2021/04/16 12:56:04;;;;;;;5.82;2.53;;;21.90;26.70;;;;;;5001090;28;20214;-64
2021/04/16 12:58:33;;;;;;;3.40;2.47;;;21.50;25.90;;;;;;4994195;28;20461;-65
2021/04/16 13:01:02;;;;;;;5.57;2.70;;;21.00;25.60;;;;;;4998273;28;20125;-64
2021/04/16 13:03:40;;;;;;;6.95;2.80;;;20.60;25.90;;;;;;4997915;28;20084;-64
2021/04/16 13:06:24;;;;;;;8.15;3.55;;;20.30;26.30;;;;;;4997364;28;20196;-64
2021/04/16 13:08:50;;;;;;;5.10;2.92;;;20.20;26.20;;;;;;5004680;28;20041;-64
2021/04/16 13:11:20;;;;;;;5.55;2.72;;;20.20;25.80;;;;;;5007245;28;20041;-64
2021/04/16 13:13:45;;;;;;;8.77;2.90;;;20.20;25.50;;;;;;5000003;28;20041;-63
2021/04/16 13:16:16;;;;;;;5.65;2.97;;;20.10;25.60;;;;;;4996651;28;20076;-63
2021/04/16 13:18:47;;;;;;;3.15;2.40;;;20.20;26.00;;;;;;4995789;28;20767;-64
2021/04/16 13:21:38;;;;;;;6.10;2.90;;;20.40;25.90;;;;;;5002918;28;20064;-64
2021/04/16 13:24:08;;;;;;;7.93;2.90;;;20.50;25.90;;;;;;5005683;28;20621;-64
2021/04/16 13:26:34;;;;;;;6.18;2.47;;;20.70;25.60;;;;;;4998437;28;20103;-64
2021/04/16 13:29:00;;;;;;;5.10;2.20;;;20.80;25.30;;;;;;4993451;28;20201;-64
2021/04/16 13:31:31;;;;;;;3.50;2.50;;;20.80;25.60;;;;;;4997942;28;20079;-63
2021/04/16 13:33:59;;;;;;;5.00;2.53;;;20.90;26.00;;;;;;5008166;28;20069;-64
2021/04/16 13:36:27;;;;;;;4.75;2.42;;;21.10;25.30;;;;;;5028822;28;20040;-64
2021/04/16 13:38:55;;;;;;;4.30;2.33;;;21.10;24.60;;;;;;5019334;28;20435;-64
2021/04/16 13:41:23;;;;;;;2.78;2.30;;;21.10;24.50;;;;;;5003019;28;20045;-64
2021/04/16 13:43:50;;;;;;;3.17;2.17;;;21.00;24.40;;;;;;5003234;28;20052;-64
2021/04/16 13:46:21;;;;;;;5.35;2.13;;;21.00;24.30;;;;;;5003513;28;20046;-63
2021/04/16 13:48:48;;;;;;;4.55;2.50;;;21.00;24.40;;;;;;4997333;28;20170;-63
2021/04/16 13:51:15;;;;;;;3.35;2.22;;;21.10;24.50;;;;;;4994128;28;20026;-63
2021/04/16 13:53:41;;;;;;;4.30;2.45;;;21.10;24.20;;;;;;4998033;28;20749;-63
2021/04/16 13:56:07;;;;;;;2.55;2.33;;;21.10;23.70;;;;;;5001138;28;20042;-63
2021/04/16 13:58:35;;;;;;;4.60;2.13;;;21.00;23.80;;;;;;5011236;28;20060;-63
2021/04/16 14:01:02;;;;;;;6.07;2.78;;;21.00;24.00;;;;;;4999030;28;20843;-65
2021/04/16 14:03:40;;;;;;;4.75;2.80;;;20.90;24.30;;;;;;5003384;28;20045;-62
2021/04/16 14:06:21;;;;;;;6.13;3.53;;;20.80;25.20;;;;;;4989502;28;20097;-63
2021/04/16 14:09:00;;;;;;;8.57;3.75;;;20.90;26.40;;;;;;4992975;28;20091;-63
2021/04/16 14:11:27;;;;;;;9.60;3.78;;;21.00;27.20;;;;;;4994704;28;20048;-63
2021/04/16 14:13:53;;;;;;;5.45;3.85;;;21.00;27.80;;;;;;4998900;28;20037;-63
2021/04/16 14:16:29;;;;;;;6.38;3.92;;;21.00;27.80;;;;;;5000167;28;20040;-63
2021/04/16 14:18:59;;;;;;;9.73;3.95;;;20.90;27.80;;;;;;5010786;28;20065;-63
2021/04/16 14:21:24;;;;;;;6.93;3.75;;;20.60;28.20;;;;;;5005217;28;20072;-64
2021/04/16 14:23:52;;;;;;;6.85;3.70;;;20.40;28.80;;;;;;4989674;28;20515;-64
2021/04/16 14:26:22;;;;;;;6.07;3.78;;;20.30;28.80;;;;;;4990913;28;20552;-63
2021/04/16 14:28:48;;;;;;;5.90;3.50;;;20.30;29.20;;;;;;4990388;28;20272;-64
2021/04/16 14:31:14;;;;;;;5.05;3.75;;;20.40;29.20;;;;;;4986028;28;20044;-64
2021/04/16 14:33:43;;;;;;;7.07;3.55;;;20.50;29.20;;;;;;4983243;28;20355;-64
2021/04/16 14:36:10;;;;;;;7.63;3.67;;;20.40;28.90;;;;;;4985779;28;20045;-63
2021/04/16 14:38:36;;;;;;;8.80;4.20;;;20.30;29.20;;;;;;4990166;28;20044;-64
2021/04/16 14:41:05;;;;;;;7.78;3.78;;;20.20;29.10;;;;;;4989862;28;20583;-64
2021/04/16 14:43:34;;;;;;;5.47;3.38;;;20.10;29.10;;;;;;4989479;28;20038;-64
2021/04/16 14:46:02;;;;;;;8.63;3.88;;;20.00;29.20;;;;;;4985280;28;20087;-64
2021/04/16 14:48:32;;;;;;;6.07;3.35;;;19.90;29.50;;;;;;4989291;28;20037;-64
2021/04/16 14:51:07;;;;;;;6.32;3.75;;;19.80;29.50;;;;;;4989168;28;20036;-63
2021/04/16 14:53:40;;;;;;;6.85;3.50;;;19.70;29.50;;;;;;5006507;28;20088;-64
2021/04/16 14:56:10;;;;;;;6.10;3.05;;;19.70;29.60;;;;;;5004688;28;20065;-63
2021/04/16 14:58:37;;;;;;;4.68;3.08;;;19.70;29.40;;;;;;5003109;28;20590;-65
2021/04/16 15:01:03;;;;;;;6.60;2.85;;;19.70;29.30;;;;;;5018675;28;20041;-64
2021/04/16 15:03:31;;;;;;;5.70;2.90;;;19.70;29.20;;;;;;5001907;28;20125;-63
2021/04/16 15:05:57;;;;;;;4.80;2.60;;;19.70;29.10;;;;;;4997729;28;20633;-64
2021/04/16 15:08:30;;;;;;;7.40;2.75;;;19.70;28.90;;;;;;5018430;28;20037;-64
2021/04/16 15:11:09;;;;;;;6.28;2.55;;;19.70;28.70;;;;;;5006564;28;20473;-63
2021/04/16 15:13:38;;;;;;;3.83;2.70;;;19.70;29.70;;;;;;5004391;28;21761;-64
2021/04/16 15:16:07;;;;;;;7.05;3.83;;;19.60;29.10;;;;;;4995659;28;20432;-65
2021/04/16 15:18:37;;;;;;;9.63;2.78;;;19.50;29.00;;;;;;5010879;28;20597;-64